| time (UTC) | temp C | wind direction | speed KPH | gust KPH | rain 1hr cm | rain 24hr cm | rain mn cm | humidity % | barometer mb |
| 20260507070458 | 16 | 266 | 0.0 | 3.2 | 0.00 | 0.33 | 0.20 | 93 | 1008.5 |
| 20260507070012 | 16 | 19 | 1.6 | 4.8 | 0.05 | 0.33 | 0.20 | 92 | 1008.9 |
| 20260507065451 | 16 | 35 | 0.0 | 8.0 | 0.00 | 0.33 | 0.20 | 93 | 1008.4 |
| 20260507064516 | 16 | 44 | 1.6 | 9.7 | 0.08 | 0.33 | 0.20 | 91 | 1008.5 |
| 20260507064422 | 16 | 44 | 1.6 | 11.3 | 0.00 | 0.33 | 0.20 | 92 | 1008.0 |
| 20260507063426 | 17 | 22 | 1.6 | 11.3 | 0.00 | 0.33 | 0.20 | 92 | 1008.2 |
| 20260507063020 | 17 | 34 | 3.2 | 12.9 | 0.18 | 0.33 | 0.20 | 92 | 1008.8 |
| 20260507062420 | 17 | 20 | 1.6 | 9.7 | 0.10 | 0.33 | 0.20 | 93 | 1008.7 |
| 20260507061505 | 17 | 301 | 3.2 | 12.9 | 0.20 | 0.33 | 0.20 | 92 | 1009.1 |
| 20260507061417 | 17 | 315 | 3.2 | 9.7 | 0.15 | 0.33 | 0.20 | 93 | 1008.8 |
| 20260507060402 | 18 | 329 | 1.6 | 9.7 | 0.15 | 0.28 | 0.15 | 94 | 1008.9 |
| 20260507060008 | 17 | 315 | 3.2 | 6.4 | 0.15 | 0.28 | 0.15 | 93 | 1009.5 |
| 20260507055357 | 18 | 291 | 0.0 | 0.0 | 0.10 | 0.23 | 0.15 | 92 | 1008.9 |
| 20260507054512 | 18 | 291 | 0.0 | 3.2 | 0.13 | 0.25 | 0.13 | 91 | 1009.3 |
| 20260507054341 | 18 | 291 | 0.0 | 0.0 | 0.25 | 0.23 | 0.13 | 91 | 1008.9 |
| 20260507053323 | 18 | 291 | 0.0 | 0.0 | 0.76 | 0.13 | 0.05 | 90 | 1008.9 |
| 20260507053021 | 18 | 291 | 0.0 | 6.4 | 0.03 | 0.15 | 0.03 | 89 | 1009.3 |
| 20260507052308 | 18 | 292 | 0.0 | 0.0 | 0.00 | 0.10 | 0.00 | 89 | 1008.9 |
| 20260507051531 | 18 | 292 | 0.0 | 0.0 | 0.00 | 0.13 | 0.00 | 88 | 1009.3 |
| 20260507051300 | 18 | 292 | 0.0 | 0.0 | 0.00 | 0.10 | 0.00 | 89 | 1009.0 |
| 20260507050250 | 18 | 292 | 0.0 | 0.0 | 0.00 | 0.10 | 0.00 | 89 | 1009.0 |
| 20260507050011 | 18 | 292 | 0.0 | 0.0 | 0.00 | 0.13 | 0.00 | 88 | 1009.5 |
| 20260507045301 | 18 | 292 | 0.0 | 0.0 | 0.00 | 0.10 | 0.00 | 88 | 1009.0 |
| 20260507044512 | 18 | 292 | 0.0 | 0.0 | 0.00 | 0.13 | 0.00 | 88 | 1009.4 |
| 20260507044227 | 18 | 292 | 0.0 | 0.0 | 0.00 | 0.10 | 0.00 | 88 | 1009.0 |
| 20260507043016 | 18 | 292 | 0.0 | 3.2 | 0.00 | 0.13 | 0.00 | 87 | 1009.4 |
| 20260507042135 | 18 | 292 | 0.0 | 0.0 | 0.00 | 0.10 | 0.00 | 89 | 1009.1 |
| 20260507041518 | 18 | 292 | 0.0 | 6.4 | 0.00 | 0.13 | 0.00 | 89 | 1009.6 |
| 20260507040027 | 17 | 275 | 3.2 | 4.8 | 0.00 | 0.13 | 0.00 | 90 | 1009.9 |
| 20260507035952 | 17 | 275 | 0.0 | 3.2 | 0.00 | 0.10 | 0.13 | 90 | 1009.4 |
| 20260507034933 | 17 | 275 | 0.0 | 4.8 | 0.00 | 0.10 | 0.13 | 90 | 1009.2 |
| 20260507034519 | 17 | 273 | 0.0 | 4.8 | 0.00 | 0.13 | 0.13 | 89 | 1009.5 |
| 20260507033924 | 17 | 274 | 0.0 | 3.2 | 0.00 | 0.10 | 0.13 | 91 | 1009.0 |
| 20260507033025 | 17 | 274 | 0.0 | 6.4 | 0.00 | 0.13 | 0.13 | 90 | 1009.0 |
| 20260507031739 | 17 | 274 | 0.0 | 0.0 | 0.00 | 0.10 | 0.13 | 89 | 1008.5 |
| 20260507031517 | 17 | 274 | 0.0 | 1.6 | 0.00 | 0.13 | 0.13 | 89 | 1008.8 |
| 20260507030707 | 17 | 274 | 0.0 | 1.6 | 0.00 | 0.10 | 0.13 | 89 | 1008.6 |
| 20260507030026 | 17 | 274 | 0.0 | 0.0 | 0.00 | 0.13 | 0.13 | 86 | 1009.1 |
| 20260507025633 | 18 | 274 | 0.0 | 0.0 | 0.00 | 0.10 | 0.13 | 87 | 1008.7 |
| 20260507024658 | 18 | 274 | 0.0 | 0.0 | 0.00 | 0.10 | 0.13 | 87 | 1008.8 |
| 20260507024524 | 18 | 274 | 0.0 | 6.4 | 0.00 | 0.13 | 0.13 | 87 | 1009.2 |
| 20260507023653 | 18 | 274 | 0.0 | 6.4 | 0.00 | 0.10 | 0.13 | 87 | 1009.0 |
| 20260507023020 | 18 | 274 | 1.6 | 9.7 | 0.00 | 0.13 | 0.13 | 87 | 1009.6 |
| 20260507022636 | 18 | 286 | 1.6 | 4.8 | 0.00 | 0.10 | 0.13 | 88 | 1009.3 |
| 20260507021514 | 17 | 274 | 3.2 | 6.4 | 0.00 | 0.13 | 0.13 | 87 | 1009.7 |
| 20260507020541 | 18 | 257 | 0.0 | 0.0 | 0.00 | 0.10 | 0.13 | 87 | 1009.0 |
| 20260507020022 | 18 | 257 | 1.6 | 4.8 | 0.00 | 0.13 | 0.13 | 86 | 1009.3 |
| 20260507015535 | 18 | 257 | 0.0 | 1.6 | 0.00 | 0.10 | 0.13 | 86 | 1008.9 |
| 20260507014537 | 18 | 257 | 1.6 | 9.7 | 0.00 | 0.10 | 0.13 | 86 | 1009.2 |
| 20260507014521 | 18 | 257 | 0.0 | 6.4 | 0.00 | 0.13 | 0.13 | 85 | 1009.6 |
| 20260507013531 | 18 | 259 | 1.6 | 9.7 | 0.00 | 0.10 | 0.13 | 86 | 1009.3 |
| 20260507013024 | 18 | 255 | 3.2 | 11.3 | 0.00 | 0.13 | 0.13 | 85 | 1009.5 |
| 20260507012525 | 18 | 271 | 3.2 | 8.0 | 0.00 | 0.10 | 0.13 | 86 | 1009.1 |
| 20260507011512 | 18 | 272 | 4.8 | 9.7 | 0.00 | 0.13 | 0.13 | 84 | 1009.6 |
| 20260507011454 | 18 | 275 | 1.6 | 8.0 | 0.00 | 0.10 | 0.13 | 85 | 1009.2 |
| 20260507010024 | 18 | 257 | 1.6 | 11.3 | 0.00 | 0.13 | 0.13 | 84 | 1009.4 |
| 20260507005311 | 19 | 237 | 3.2 | 9.7 | 0.00 | 0.10 | 0.13 | 84 | 1009.1 |
| 20260507004532 | 18 | 262 | 3.2 | 14.5 | 0.00 | 0.13 | 0.13 | 84 | 1009.4 |
| 20260507004249 | 19 | 254 | 3.2 | 9.7 | 0.00 | 0.10 | 0.13 | 85 | 1008.9 |
| 20260507003026 | 18 | 257 | 3.2 | 12.9 | 0.00 | 0.13 | 0.13 | 85 | 1009.5 |
| 20260507002134 | 19 | 236 | 3.2 | 9.7 | 0.00 | 0.10 | 0.13 | 85 | 1008.9 |
| 20260507001525 | 18 | 251 | 1.6 | 11.3 | 0.00 | 0.13 | 0.13 | 84 | 1009.1 |
| 20260507001121 | 19 | 246 | 3.2 | 9.7 | 0.00 | 0.10 | 0.13 | 85 | 1008.7 |
| 20260507000109 | 19 | 279 | 3.2 | 9.7 | 0.00 | 0.10 | 0.13 | 85 | 1008.7 |
| 20260507000017 | 18 | 279 | 3.2 | 14.5 | 0.00 | 0.13 | 0.13 | 84 | 1009.0 |
| 20260506235133 | 19 | 243 | 1.6 | 8.0 | 0.00 | 0.10 | 0.13 | 84 | 1008.7 |
| 20260506234518 | 19 | 257 | 1.6 | 11.3 | 0.00 | 0.13 | 0.13 | 83 | 1009.0 |
| 20260506234106 | 19 | 273 | 3.2 | 8.0 | 0.00 | 0.10 | 0.13 | 83 | 1008.6 |
| 20260506233024 | 19 | 265 | 1.6 | 6.4 | 0.00 | 0.13 | 0.13 | 82 | 1008.9 |
| 20260506231953 | 20 | 244 | 3.2 | 11.3 | 0.00 | 0.10 | 0.13 | 82 | 1008.4 |
| 20260506231524 | 19 | 285 | 3.2 | 14.5 | 0.00 | 0.13 | 0.13 | 81 | 1008.9 |
| 20260506230948 | 20 | 257 | 4.8 | 16.1 | 0.00 | 0.10 | 0.13 | 82 | 1008.4 |
| 20260506230027 | 20 | 275 | 9.7 | 19.3 | 0.00 | 0.13 | 0.13 | 81 | 1008.8 |
| 20260506225951 | 20 | 268 | 4.8 | 16.1 | 0.00 | 0.10 | 0.13 | 81 | 1008.4 |
| 20260506224946 | 20 | 287 | 4.8 | 14.5 | 0.00 | 0.10 | 0.13 | 80 | 1008.4 |
| 20260506224516 | 20 | 267 | 6.4 | 17.7 | 0.00 | 0.13 | 0.13 | 79 | 1008.8 |
| 20260506224010 | 21 | 246 | 4.8 | 16.1 | 0.00 | 0.10 | 0.13 | 79 | 1008.5 |
| 20260506223028 | 21 | 229 | 4.8 | 16.1 | 0.00 | 0.10 | 0.13 | 80 | 1008.5 |
| 20260506223004 | 20 | 280 | 4.8 | 19.3 | 0.00 | 0.13 | 0.13 | 79 | 1008.9 |
| 20260506221508 | 20 | 265 | 3.2 | 16.1 | 0.00 | 0.13 | 0.13 | 79 | 1008.9 |
| 20260506220022 | 20 | 265 | 6.4 | 16.1 | 0.00 | 0.13 | 0.13 | 79 | 1009.1 |
| 20260506215717 | 20 | 234 | 4.8 | 12.9 | 0.00 | 0.10 | 0.13 | 80 | 1008.8 |
| 20260506214657 | 20 | 244 | 4.8 | 12.9 | 0.00 | 0.10 | 0.13 | 80 | 1008.9 |
| 20260506214511 | 20 | 267 | 6.4 | 16.1 | 0.00 | 0.13 | 0.13 | 80 | 1009.1 |
| 20260506213631 | 20 | 285 | 4.8 | 16.1 | 0.00 | 0.10 | 0.13 | 81 | 1008.8 |
| 20260506213016 | 20 | 246 | 8.0 | 19.3 | 0.00 | 0.13 | 0.13 | 80 | 1009.1 |
| 20260506212619 | 20 | 274 | 6.4 | 16.1 | 0.00 | 0.10 | 0.13 | 81 | 1008.8 |
| 20260506211546 | 20 | 267 | 6.4 | 12.9 | 0.00 | 0.10 | 0.13 | 81 | 1008.9 |
| 20260506211521 | 20 | 277 | 8.0 | 16.1 | 0.00 | 0.13 | 0.13 | 81 | 1009.1 |
| 20260506210011 | 20 | 286 | 4.8 | 12.9 | 0.00 | 0.13 | 0.13 | 81 | 1009.1 |
| 20260506205448 | 20 | 269 | 3.2 | 9.7 | 0.00 | 0.10 | 0.13 | 82 | 1008.7 |
| 20260506204510 | 19 | 269 | 4.8 | 12.9 | 0.00 | 0.13 | 0.13 | 82 | 1009.0 |
| 20260506203325 | 19 | 255 | 3.2 | 11.3 | 0.00 | 0.10 | 0.13 | 84 | 1008.9 |
| 20260506203020 | 18 | 280 | 3.2 | 12.9 | 0.00 | 0.13 | 0.13 | 84 | 1009.2 |
| 20260506202331 | 18 | 246 | 1.6 | 8.0 | 0.00 | 0.10 | 0.13 | 85 | 1008.7 |
| 20260506201520 | 18 | 241 | 3.2 | 11.3 | 0.00 | 0.13 | 0.13 | 85 | 1009.1 |
| 20260506200212 | 18 | 245 | 4.8 | 9.7 | 0.00 | 0.10 | 0.13 | 85 | 1009.2 |
| 20260506200023 | 18 | 272 | 4.8 | 14.5 | 0.00 | 0.13 | 0.13 | 84 | 1009.5 |
| 20260506195146 | 19 | 267 | 6.4 | 17.7 | 0.00 | 0.10 | 0.13 | 84 | 1009.4 |
| 20260506194507 | 18 | 254 | 9.7 | 20.9 | 0.00 | 0.13 | 0.13 | 83 | 1009.5 |
| 20260506194141 | 19 | 249 | 6.4 | 20.9 | 0.00 | 0.10 | 0.13 | 84 | 1009.3 |
| 20260506193116 | 19 | 243 | 8.0 | 20.9 | 0.00 | 0.10 | 0.13 | 83 | 1009.3 |
| 20260506193014 | 19 | 234 | 9.7 | 24.1 | 0.00 | 0.13 | 0.13 | 83 | 1009.5 |
| 20260506192113 | 19 | 281 | 4.8 | 12.9 | 0.00 | 0.10 | 0.13 | 84 | 1009.4 |
| 20260506191516 | 19 | 234 | 3.2 | 16.1 | 0.00 | 0.13 | 0.13 | 84 | 1009.6 |
| 20260506191103 | 19 | 275 | 4.8 | 14.5 | 0.00 | 0.10 | 0.13 | 83 | 1009.3 |
| 20260506190056 | 20 | 281 | 4.8 | 16.1 | 0.00 | 0.10 | 0.13 | 84 | 1009.6 |
| 20260506190026 | 19 | 217 | 8.0 | 19.3 | 0.00 | 0.13 | 0.13 | 84 | 1010.0 |
| 20260506185051 | 20 | 275 | 4.8 | 20.9 | 0.00 | 0.10 | 0.13 | 84 | 1009.8 |
| 20260506184522 | 19 | 209 | 4.8 | 17.7 | 0.00 | 0.13 | 0.13 | 84 | 1010.2 |
| 20260506184047 | 19 | 256 | 6.4 | 20.9 | 0.00 | 0.10 | 0.13 | 84 | 1009.9 |
| 20260506183016 | 19 | 235 | 8.0 | 19.3 | 0.00 | 0.10 | 0.13 | 83 | 1010.0 |
| 20260506183010 | 19 | 213 | 9.7 | 22.5 | 0.00 | 0.13 | 0.13 | 83 | 1010.5 |
| 20260506182011 | 19 | 214 | 6.4 | 19.3 | 0.00 | 0.10 | 0.13 | 84 | 1010.2 |
| 20260506181517 | 18 | 218 | 4.8 | 22.5 | 0.00 | 0.13 | 0.13 | 84 | 1010.7 |
| 20260506181007 | 19 | 289 | 6.4 | 19.3 | 0.00 | 0.10 | 0.13 | 84 | 1010.3 |
| 20260506180020 | 18 | 256 | 4.8 | 22.5 | 0.00 | 0.13 | 0.13 | 84 | 1010.9 |
| 20260506180013 | 19 | 253 | 6.4 | 19.3 | 0.00 | 0.10 | 0.13 | 85 | 1010.5 |
| 20260506174956 | 18 | 236 | 6.4 | 19.3 | 0.00 | 0.10 | 0.13 | 86 | 1010.3 |
| 20260506174522 | 18 | 183 | 8.0 | 19.3 | 0.00 | 0.13 | 0.13 | 85 | 1010.7 |
| 20260506173944 | 18 | 251 | 6.4 | 19.3 | 0.00 | 0.10 | 0.13 | 86 | 1010.5 |
| 20260506173026 | 18 | 273 | 8.0 | 17.7 | 0.00 | 0.13 | 0.13 | 85 | 1011.0 |
| 20260506171814 | 18 | 94 | 4.8 | 17.7 | 0.00 | 0.10 | 0.13 | 87 | 1010.4 |
| 20260506171516 | 18 | 239 | 6.4 | 12.9 | 0.08 | 0.13 | 0.13 | 87 | 1010.7 |
| 20260506170824 | 18 | 199 | 3.2 | 12.9 | 0.00 | 0.10 | 0.13 | 89 | 1010.5 |
| 20260506170018 | 17 | 217 | 4.8 | 14.5 | 0.08 | 0.13 | 0.13 | 88 | 1011.0 |
| 20260506165811 | 17 | 229 | 3.2 | 14.5 | 0.00 | 0.10 | 0.13 | 89 | 1010.7 |
| 20260506164522 | 17 | 153 | 4.8 | 17.7 | 0.08 | 0.13 | 0.13 | 88 | 1011.4 |
| 20260506163637 | 17 | 211 | 4.8 | 14.5 | 0.15 | 0.10 | 0.13 | 89 | 1011.0 |
| 20260506163026 | 17 | 268 | 9.7 | 16.1 | 0.10 | 0.13 | 0.13 | 88 | 1011.4 |
| 20260506162619 | 17 | 266 | 4.8 | 14.5 | 0.25 | 0.10 | 0.13 | 88 | 1011.2 |
| 20260506161554 | 17 | 200 | 4.8 | 17.7 | 0.00 | 0.05 | 0.08 | 87 | 1011.6 |
| 20260506161533 | 17 | 224 | 6.4 | 20.9 | 0.05 | 0.05 | 0.05 | 86 | 1012.1 |
| 20260506160618 | 17 | 258 | 6.4 | 17.7 | 0.00 | 0.05 | 0.05 | 86 | 1011.6 |
| 20260506160016 | 17 | 234 | 8.0 | 20.9 | 0.05 | 0.05 | 0.05 | 87 | 1012.1 |
| 20260506155630 | 17 | 231 | 4.8 | 17.7 | 0.10 | 0.05 | 0.05 | 88 | 1011.6 |
| 20260506154602 | 17 | 227 | 4.8 | 16.1 | 0.10 | 0.05 | 0.05 | 89 | 1011.7 |
| 20260506154520 | 17 | 252 | 6.4 | 19.3 | 0.05 | 0.05 | 0.05 | 89 | 1012.2 |
| 20260506153531 | 18 | 226 | 3.2 | 16.1 | 0.00 | 0.03 | 0.03 | 89 | 1012.0 |
| 20260506153021 | 17 | 64 | 3.2 | 12.9 | 0.03 | 0.03 | 0.03 | 87 | 1012.5 |
| 20260506152556 | 18 | 269 | 3.2 | 16.1 | 0.00 | 0.00 | 0.00 | 87 | 1012.1 |
| 20260506151533 | 18 | 201 | 3.2 | 14.5 | 0.00 | 0.00 | 0.00 | 87 | 1012.1 |
| 20260506151524 | 18 | 165 | 3.2 | 16.1 | 0.00 | 0.00 | 0.00 | 87 | 1012.5 |
| 20260506150027 | 17 | 269 | 3.2 | 16.1 | 0.00 | 0.00 | 0.00 | 87 | 1012.3 |
| 20260506145405 | 18 | 248 | 4.8 | 14.5 | 0.00 | 0.00 | 0.00 | 87 | 1011.8 |
| 20260506144520 | 18 | 250 | 4.8 | 17.7 | 0.00 | 0.00 | 0.00 | 84 | 1012.1 |
| 20260506144415 | 18 | 84 | 4.8 | 16.1 | 0.00 | 0.00 | 0.00 | 84 | 1011.6 |
| 20260506143026 | 18 | 234 | 4.8 | 33.8 | 0.00 | 0.00 | 0.00 | 82 | 1012.2 |
| 20260506142308 | 18 | 198 | 4.8 | 24.1 | 0.00 | 0.00 | 0.00 | 81 | 1011.6 |
| 20260506141533 | 18 | 279 | 8.0 | 27.4 | 0.00 | 0.00 | 0.00 | 80 | 1012.2 |
| 20260506141244 | 18 | 239 | 8.0 | 24.1 | 0.00 | 0.00 | 0.00 | 81 | 1011.6 |
| 20260506140238 | 19 | 303 | 3.2 | 14.5 | 0.00 | 0.00 | 0.00 | 80 | 1011.7 |
| 20260506140025 | 18 | 208 | 3.2 | 16.1 | 0.00 | 0.00 | 0.00 | 80 | 1012.1 |
| 20260506135207 | 19 | 227 | 3.2 | 16.1 | 0.00 | 0.00 | 0.00 | 80 | 1011.6 |
| 20260506134525 | 18 | 253 | 4.8 | 16.1 | 0.00 | 0.00 | 0.00 | 79 | 1012.0 |
| 20260506134203 | 19 | 227 | 4.8 | 16.1 | 0.00 | 0.00 | 0.00 | 80 | 1011.6 |
| 20260506133008 | 18 | 247 | 4.8 | 19.3 | 0.00 | 0.00 | 0.00 | 79 | 1012.0 |
| 20260506131507 | 18 | 205 | 6.4 | 20.9 | 0.00 | 0.00 | 0.00 | 79 | 1012.4 |
| 20260506130851 | 19 | 232 | 3.2 | 12.9 | 0.00 | 0.00 | 0.00 | 79 | 1011.9 |
| 20260506130006 | 19 | 240 | 3.2 | 16.1 | 0.00 | 0.00 | 0.00 | 78 | 1012.2 |
| 20260506125903 | 19 | 223 | 3.2 | 12.9 | 0.00 | 0.00 | 0.00 | 78 | 1011.7 |
| 20260506124915 | 19 | 170 | 4.8 | 20.9 | 0.00 | 0.00 | 0.00 | 79 | 1011.8 |
| 20260506124506 | 19 | 269 | 4.8 | 17.7 | 0.00 | 0.00 | 0.00 | 78 | 1012.3 |
| 20260506123008 | 18 | 256 | 8.0 | 20.9 | 0.00 | 0.00 | 0.00 | 79 | 1012.5 |
| 20260506122838 | 19 | 202 | 6.4 | 17.7 | 0.00 | 0.00 | 0.00 | 80 | 1012.0 |
| 20260506121902 | 18 | 260 | 6.4 | 24.1 | 0.00 | 0.00 | 0.00 | 79 | 1012.1 |
| 20260506121508 | 18 | 238 | 6.4 | 27.4 | 0.00 | 0.00 | 0.00 | 80 | 1012.7 |
| 20260506120911 | 18 | 209 | 6.4 | 24.1 | 0.00 | 0.00 | 0.00 | 80 | 1012.1 |
| 20260506120006 | 18 | 233 | 8.0 | 22.5 | 0.00 | 0.00 | 0.00 | 81 | 1012.4 |
| 20260506115926 | 18 | 211 | 6.4 | 20.9 | 0.00 | 0.00 | 0.00 | 82 | 1012.0 |
| 20260506114506 | 18 | 232 | 4.8 | 20.9 | 0.00 | 0.00 | 0.00 | 81 | 1012.3 |
| 20260506113803 | 18 | 273 | 4.8 | 17.7 | 0.00 | 0.00 | 0.00 | 82 | 1011.9 |
| 20260506113008 | 17 | 100 | 8.0 | 19.3 | 0.00 | 0.00 | 0.00 | 83 | 1012.2 |
| 20260506111511 | 17 | 224 | 4.8 | 16.1 | 0.00 | 0.00 | 0.00 | 84 | 1012.0 |
| 20260506110014 | 17 | 182 | 6.4 | 17.7 | 0.00 | 0.00 | 0.00 | 83 | 1012.0 |
| 20260506105350 | 17 | 229 | 3.2 | 14.5 | 0.00 | 0.00 | 0.00 | 83 | 1011.7 |
| 20260506104508 | 17 | 238 | 4.8 | 16.1 | 0.00 | 0.00 | 0.00 | 84 | 1012.0 |
| 20260506104350 | 17 | 195 | 4.8 | 14.5 | 0.00 | 0.00 | 0.00 | 84 | 1011.6 |
| 20260506103340 | 17 | 188 | 1.6 | 14.5 | 0.00 | 0.00 | 0.00 | 85 | 1011.7 |
| 20260506103011 | 16 | 198 | 3.2 | 14.5 | 0.00 | 0.00 | 0.00 | 85 | 1012.1 |
| 20260506102349 | 17 | 157 | 1.6 | 12.9 | 0.00 | 0.00 | 0.00 | 85 | 1011.7 |
| 20260506101512 | 16 | 185 | 3.2 | 14.5 | 0.00 | 0.00 | 0.00 | 84 | 1012.2 |
| 20260506101349 | 17 | 254 | 3.2 | 16.1 | 0.00 | 0.00 | 0.00 | 85 | 1011.8 |
| 20260506100317 | 17 | 232 | 3.2 | 16.1 | 0.00 | 0.00 | 0.00 | 84 | 1011.7 |
| 20260506100013 | 16 | 186 | 6.4 | 19.3 | 0.00 | 0.00 | 0.00 | 84 | 1011.9 |
| 20260506094514 | 16 | 279 | 3.2 | 17.7 | 0.00 | 0.00 | 0.00 | 83 | 1011.9 |
| 20260506094211 | 17 | 291 | 3.2 | 14.5 | 0.00 | 0.00 | 0.00 | 83 | 1011.6 |
| 20260506093146 | 17 | 196 | 3.2 | 16.1 | 0.00 | 0.00 | 0.00 | 83 | 1011.5 |
| 20260506093008 | 16 | 262 | 4.8 | 20.9 | 0.00 | 0.00 | 0.00 | 82 | 1011.9 |
| 20260506092122 | 17 | 180 | 3.2 | 17.7 | 0.00 | 0.00 | 0.00 | 82 | 1011.5 |
| 20260506091518 | 16 | 234 | 3.2 | 19.3 | 0.00 | 0.00 | 0.00 | 82 | 1011.9 |
| 20260506090021 | 17 | 188 | 4.8 | 17.7 | 0.00 | 0.00 | 0.00 | 82 | 1012.0 |
| 20260506085955 | 17 | 188 | 3.2 | 16.1 | 0.00 | 0.00 | 0.00 | 82 | 1011.7 |
| 20260506084938 | 17 | 16 | 3.2 | 16.1 | 0.00 | 0.00 | 0.00 | 82 | 1011.8 |
| 20260506084532 | 17 | 215 | 8.0 | 17.7 | 0.00 | 0.00 | 0.00 | 82 | 1012.1 |
| 20260506083924 | 17 | 240 | 3.2 | 11.3 | 0.00 | 0.00 | 0.00 | 83 | 1011.7 |
| 20260506083017 | 17 | 254 | 3.2 | 16.1 | 0.00 | 0.00 | 0.00 | 82 | 1012.0 |
| 20260506082932 | 17 | 119 | 3.2 | 16.1 | 0.00 | 0.00 | 0.00 | 83 | 1011.7 |
| 20260506081918 | 17 | 225 | 3.2 | 16.1 | 0.00 | 0.00 | 0.00 | 83 | 1011.8 |
| 20260506081517 | 17 | 190 | 4.8 | 19.3 | 0.00 | 0.00 | 0.00 | 82 | 1012.2 |
| 20260506080929 | 17 | 232 | 3.2 | 19.3 | 0.00 | 0.00 | 0.00 | 83 | 1012.0 |
| 20260506073020 | 17 | 175 | 4.8 | 17.7 | 0.00 | 0.00 | 0.00 | 82 | 1012.4 |
| 20260506072953 | 17 | 173 | 3.2 | 14.5 | 0.00 | 0.00 | 0.00 | 83 | 1012.0 |
| 20260506071520 | 17 | 272 | 4.8 | 24.1 | 0.00 | 0.00 | 0.00 | 82 | 1012.5 |
| 20260506070807 | 17 | 226 | 3.2 | 20.9 | 0.00 | 0.00 | 0.00 | 82 | 1012.1 |